createdAt,value
2022-09-21T00:01:25.674Z,8.77
2022-09-21T00:04:04.695Z,8.63
2022-09-21T00:06:40.759Z,8.60
2022-09-21T00:09:14.953Z,8.53
2022-09-21T00:11:53.239Z,8.20
2022-09-21T00:14:29.815Z,7.73
2022-09-21T00:17:04.972Z,9.00
2022-09-21T00:19:44.221Z,8.30
2022-09-21T00:22:19.283Z,9.20
2022-09-21T00:24:53.666Z,10.00
2022-09-21T00:27:31.415Z,8.90
2022-09-21T00:30:08.351Z,9.90
2022-09-21T00:32:44.441Z,9.77
2022-09-21T00:35:22.108Z,9.27
2022-09-21T00:37:57.694Z,8.80
2022-09-21T00:40:32.890Z,9.00
2022-09-21T00:43:21.339Z,9.10
2022-09-21T00:46:02.221Z,9.40
2022-09-21T00:48:38.160Z,8.73
2022-09-21T00:51:14.976Z,8.67
2022-09-21T00:53:50.143Z,7.87
2022-09-21T00:56:25.168Z,8.00
2022-09-21T00:59:01.442Z,7.73
2022-09-21T01:01:36.272Z,8.10
2022-09-21T01:04:12.005Z,8.50
2022-09-21T01:06:49.663Z,8.37
2022-09-21T01:09:24.651Z,8.10
2022-09-21T01:12:15.598Z,7.43
2022-09-21T01:15:21.385Z,7.80
2022-09-21T01:18:04.166Z,8.30
2022-09-21T01:21:02.715Z,7.90
2022-09-21T01:23:55.467Z,8.63
2022-09-21T01:26:51.538Z,8.50
2022-09-21T01:29:33.604Z,9.33
2022-09-21T01:32:18.012Z,9.67
2022-09-21T01:34:57.121Z,9.13
2022-09-21T01:37:38.043Z,9.93
2022-09-21T01:40:21.065Z,10.40
2022-09-21T01:42:58.650Z,10.93
2022-09-21T01:45:39.643Z,11.80
2022-09-21T01:48:16.229Z,10.60
2022-09-21T01:50:55.233Z,10.67
2022-09-21T01:53:32.972Z,11.27
2022-09-21T01:56:15.306Z,11.90
2022-09-21T01:58:57.124Z,11.57
2022-09-21T02:01:46.094Z,12.50
2022-09-21T02:04:21.945Z,11.73
2022-09-21T02:07:02.160Z,12.27
2022-09-21T02:09:43.257Z,12.30
2022-09-21T02:12:19.310Z,12.07
2022-09-21T02:14:57.653Z,11.80
2022-09-21T02:17:42.457Z,10.77
2022-09-21T02:20:26.568Z,11.67
2022-09-21T02:23:10.934Z,12.10
2022-09-21T02:25:52.984Z,10.68
2022-09-21T02:28:40.289Z,11.25
2022-09-21T02:31:24.330Z,10.55
2022-09-21T02:34:06.196Z,9.82
2022-09-21T02:36:50.331Z,10.82
2022-09-21T02:39:28.283Z,10.60
2022-09-21T02:42:12.024Z,11.65
2022-09-21T02:44:57.583Z,11.38
2022-09-21T02:47:38.935Z,10.68
2022-09-21T02:50:22.838Z,12.77
2022-09-21T02:53:04.250Z,11.65
2022-09-21T02:55:43.241Z,11.45
2022-09-21T02:58:21.279Z,11.43
2022-09-21T03:00:58.344Z,11.80
2022-09-21T03:03:34.412Z,11.48
2022-09-21T03:06:15.186Z,11.82
2022-09-21T03:08:50.551Z,12.07
2022-09-21T03:11:26.193Z,12.77
2022-09-21T03:14:06.814Z,11.77
2022-09-21T03:16:42.682Z,11.48
2022-09-21T03:19:17.598Z,11.85
2022-09-21T03:21:53.582Z,11.00
2022-09-21T03:24:48.432Z,10.40
2022-09-21T03:27:24.560Z,11.13
2022-09-21T03:30:02.172Z,11.65
2022-09-21T03:32:40.374Z,11.80
2022-09-21T03:35:15.149Z,12.88
2022-09-21T03:37:52.919Z,12.63
2022-09-21T03:40:29.349Z,13.57
2022-09-21T03:43:04.634Z,13.52
2022-09-21T03:45:42.388Z,13.80
2022-09-21T03:48:18.367Z,13.40
2022-09-21T03:50:59.118Z,14.10
2022-09-21T03:53:37.808Z,14.75
2022-09-21T03:56:12.572Z,15.05
2022-09-21T03:58:54.333Z,13.98
2022-09-21T04:01:29.710Z,15.45
2022-09-21T04:04:04.591Z,16.65
2022-09-21T04:06:39.818Z,14.55
2022-09-21T04:09:18.318Z,15.23
2022-09-21T04:11:56.478Z,15.07
2022-09-21T04:14:32.478Z,16.20
2022-09-21T04:17:09.807Z,14.35
2022-09-21T04:19:46.372Z,14.82
2022-09-21T04:22:21.388Z,16.40
2022-09-21T04:24:59.864Z,15.57
2022-09-21T04:27:37.453Z,16.35
2022-09-21T04:30:16.988Z,17.55
2022-09-21T04:33:01.846Z,16.70
2022-09-21T04:35:36.743Z,17.30
2022-09-21T04:38:17.585Z,19.02
2022-09-21T04:41:01.667Z,17.17
2022-09-21T04:43:36.557Z,18.73
2022-09-21T04:46:19.670Z,17.60
2022-09-21T04:48:55.012Z,17.33
2022-09-21T04:51:31.345Z,17.65
2022-09-21T04:54:19.282Z,18.42
2022-09-21T04:57:04.929Z,19.42
2022-09-21T04:59:45.874Z,20.08
2022-09-21T05:02:34.838Z,19.02
2022-09-21T05:05:18.832Z,20.58
2022-09-21T05:08:04.344Z,19.23
2022-09-21T05:10:45.931Z,18.85
2022-09-21T05:13:25.294Z,19.35
2022-09-21T05:16:03.148Z,21.35
2022-09-21T05:18:42.524Z,21.98
2022-09-21T05:21:23.598Z,18.80
2022-09-21T05:24:00.929Z,16.75
2022-09-21T05:26:39.522Z,15.73
2022-09-21T05:29:17.942Z,14.52
2022-09-21T05:31:56.739Z,12.43
2022-09-21T05:34:45.502Z,10.60
2022-09-21T05:37:44.499Z,9.00
2022-09-21T05:40:24.723Z,10.23
2022-09-21T05:43:10.838Z,8.87
2022-09-21T05:45:54.537Z,9.50
2022-09-21T05:48:32.283Z,9.73
2022-09-21T05:51:13.865Z,8.70
2022-09-21T05:54:01.026Z,8.30
2022-09-21T05:56:49.059Z,8.60
2022-09-21T05:59:48.529Z,8.07
2022-09-21T06:02:51.996Z,9.52
2022-09-21T06:05:26.866Z,8.77
2022-09-21T06:08:05.677Z,8.85
2022-09-21T06:10:40.808Z,9.10
2022-09-21T06:13:15.303Z,8.05
2022-09-21T06:15:51.160Z,9.48
2022-09-21T06:18:50.710Z,11.27
2022-09-21T06:21:25.617Z,9.88
2022-09-21T06:24:00.734Z,10.23
2022-09-21T06:26:38.465Z,10.95
2022-09-21T06:29:13.418Z,12.65
2022-09-21T06:31:48.024Z,11.55
2022-09-21T06:34:24.549Z,11.48
2022-09-21T06:36:59.606Z,14.43
2022-09-21T06:39:34.609Z,13.70
2022-09-21T06:42:09.831Z,11.50
2022-09-21T06:44:54.406Z,13.57
2022-09-21T06:47:28.548Z,11.40
2022-09-21T06:50:04.966Z,11.95
2022-09-21T06:52:41.782Z,12.43
2022-09-21T06:55:16.428Z,10.98
2022-09-21T06:57:53.265Z,10.95
2022-09-21T07:00:39.633Z,12.07
2022-09-21T07:03:16.810Z,12.20
2022-09-21T07:05:57.592Z,11.77
2022-09-21T07:11:41.649Z,10.85
2022-09-21T07:14:19.052Z,11.70
2022-09-21T07:16:55.212Z,12.43
2022-09-21T07:19:29.994Z,12.23
2022-09-21T07:22:10.369Z,12.57
2022-09-21T07:24:57.699Z,11.68
2022-09-21T07:27:35.181Z,11.10
2022-09-21T07:30:24.892Z,9.82
2022-09-21T07:33:03.691Z,11.57
2022-09-21T07:35:39.071Z,12.30
2022-09-21T07:38:16.595Z,11.70
2022-09-21T07:40:52.271Z,10.60
2022-09-21T07:43:32.056Z,9.85
2022-09-21T07:46:07.175Z,11.20
2022-09-21T07:48:41.955Z,9.77
2022-09-21T07:51:17.944Z,9.90
2022-09-21T07:54:01.249Z,8.93
2022-09-21T07:56:36.600Z,9.65
2022-09-21T07:59:13.001Z,9.35
2022-09-21T08:01:48.580Z,9.93
2022-09-21T08:04:27.828Z,9.43
2022-09-21T08:07:06.404Z,9.60
2022-09-21T08:09:44.916Z,10.43
2022-09-21T08:12:22.288Z,11.00
2022-09-21T08:14:58.438Z,11.33
2022-09-21T08:17:34.145Z,11.33
2022-09-21T08:20:10.656Z,11.77
2022-09-21T08:22:48.721Z,12.60
2022-09-21T08:25:26.639Z,12.30
2022-09-21T08:28:09.675Z,11.23
2022-09-21T08:30:45.714Z,10.80
2022-09-21T08:33:29.433Z,10.47
2022-09-21T08:36:07.284Z,11.47
2022-09-21T08:38:44.646Z,10.80
2022-09-21T08:41:25.314Z,11.53
2022-09-21T08:44:03.531Z,10.23
2022-09-21T08:46:41.635Z,10.83
2022-09-21T08:49:25.002Z,11.97
2022-09-21T08:52:17.062Z,10.47
2022-09-21T08:55:01.919Z,10.33
2022-09-21T08:57:40.191Z,11.63
2022-09-21T09:00:22.243Z,10.37
2022-09-21T09:03:29.885Z,9.83
2022-09-21T09:06:11.514Z,9.17
2022-09-21T09:09:05.260Z,9.27
2022-09-21T09:11:53.863Z,9.53
2022-09-21T09:14:47.283Z,9.57
2022-09-21T09:17:32.168Z,9.60
2022-09-21T09:20:16.018Z,9.60
2022-09-21T09:22:59.119Z,9.47
2022-09-21T09:25:41.342Z,9.43
2022-09-21T09:28:26.233Z,9.60
2022-09-21T09:31:11.689Z,10.03
2022-09-21T09:33:57.348Z,10.10
2022-09-21T09:36:57.860Z,11.77
2022-09-21T09:39:38.094Z,10.63
2022-09-21T09:42:44.727Z,11.63
2022-09-21T09:45:52.538Z,10.43
2022-09-21T09:48:47.856Z,10.23
2022-09-21T09:51:28.254Z,9.67
2022-09-21T09:54:10.152Z,10.87
2022-09-21T09:56:44.525Z,9.73
2022-09-21T09:59:32.439Z,9.60
2022-09-21T10:02:13.502Z,10.33
2022-09-21T10:05:04.881Z,9.73
2022-09-21T10:07:43.792Z,10.47
2022-09-21T10:10:44.665Z,11.60
2022-09-21T10:13:22.897Z,11.37
2022-09-21T10:16:00.476Z,10.80
2022-09-21T10:18:42.611Z,10.93
2022-09-21T10:21:25.946Z,11.00
2022-09-21T10:24:17.091Z,11.80
2022-09-21T10:26:58.148Z,9.90
2022-09-21T10:29:43.196Z,11.57
2022-09-21T10:32:29.783Z,11.57
2022-09-21T10:35:23.279Z,11.07
2022-09-21T10:42:02.075Z,12.20
2022-09-21T10:44:44.444Z,11.77
2022-09-21T10:47:26.163Z,10.70
2022-09-21T10:50:07.133Z,11.47
2022-09-21T10:52:58.460Z,10.90
2022-09-21T10:55:40.743Z,11.07
2022-09-21T10:58:24.499Z,11.63
2022-09-21T11:01:01.667Z,10.87
2022-09-21T11:03:54.352Z,11.20
2022-09-21T11:06:32.280Z,11.63
2022-09-21T11:09:15.374Z,11.87
2022-09-21T11:11:56.773Z,10.93
2022-09-21T11:15:00.702Z,11.50
2022-09-21T11:31:49.355Z,11.27
2022-09-21T11:35:16.783Z,12.13
2022-09-21T11:51:59.537Z,10.27
2022-09-21T12:09:21.228Z,8.47
2022-09-21T12:15:30.469Z,8.73
2022-09-21T12:18:15.410Z,8.67
2022-09-21T12:21:15.022Z,8.67
2022-09-21T12:24:08.890Z,7.80
2022-09-21T12:26:46.244Z,7.60
2022-09-21T12:29:32.647Z,8.40
2022-09-21T12:32:31.458Z,7.80
2022-09-21T12:42:07.249Z,7.87
2022-09-21T12:45:12.563Z,7.53
2022-09-21T12:48:32.842Z,7.97
2022-09-21T12:51:38.519Z,6.90
2022-09-21T13:00:50.437Z,6.70
2022-09-21T13:04:24.372Z,6.47
2022-09-21T13:07:23.939Z,6.70
2022-09-21T13:10:20.043Z,7.10
2022-09-21T13:13:01.440Z,7.60
2022-09-21T13:15:46.185Z,7.33
2022-09-21T13:18:35.699Z,7.50
2022-09-21T13:21:25.492Z,7.97
2022-09-21T13:24:04.176Z,8.30
2022-09-21T13:26:46.451Z,8.83
2022-09-21T13:29:46.936Z,8.90
2022-09-21T13:32:28.636Z,10.00
2022-09-21T13:35:52.345Z,11.87
2022-09-21T13:38:41.598Z,13.23
2022-09-21T13:41:45.798Z,14.00
2022-09-21T13:44:51.331Z,14.07
2022-09-21T13:48:28.630Z,12.83
2022-09-21T13:51:13.487Z,14.13
2022-09-21T13:53:52.529Z,13.00
2022-09-21T13:56:30.494Z,13.40
2022-09-21T13:59:26.076Z,14.47
2022-09-21T14:02:09.259Z,16.43
2022-09-21T14:04:54.360Z,16.27
2022-09-21T14:07:34.618Z,16.63
2022-09-21T14:10:14.161Z,17.20
2022-09-21T14:12:59.306Z,17.40
2022-09-21T14:15:56.587Z,16.73
2022-09-21T14:18:52.981Z,17.60
2022-09-21T14:21:27.585Z,18.60
2022-09-21T14:24:27.603Z,18.37
2022-09-21T14:27:10.737Z,17.73
2022-09-21T14:29:54.384Z,18.80
2022-09-21T14:32:33.626Z,17.97
2022-09-21T14:35:22.286Z,18.17
2022-09-21T14:37:59.525Z,17.87
2022-09-21T14:40:41.570Z,19.77
2022-09-21T14:43:25.064Z,20.87
2022-09-21T14:46:29.174Z,21.50
2022-09-21T14:49:23.666Z,22.20
2022-09-21T14:52:18.296Z,21.40
2022-09-21T14:55:18.671Z,24.10
2022-09-21T14:58:17.160Z,23.70
2022-09-21T15:00:56.368Z,19.80
2022-09-21T15:04:01.630Z,19.13
2022-09-21T15:07:09.487Z,18.20
2022-09-21T15:10:24.886Z,20.67
2022-09-21T15:13:10.667Z,21.50
2022-09-21T15:15:55.539Z,21.50
2022-09-21T15:18:29.652Z,22.30
2022-09-21T15:21:10.320Z,22.80
2022-09-21T15:23:49.301Z,22.40
2022-09-21T15:26:28.240Z,20.00
2022-09-21T15:29:09.646Z,21.07
2022-09-21T15:31:45.323Z,18.97
2022-09-21T15:34:21.502Z,17.53
2022-09-21T15:36:57.274Z,17.27
2022-09-21T15:39:37.903Z,17.50
2022-09-21T15:42:28.451Z,18.23
2022-09-21T15:45:20.727Z,19.20
2022-09-21T15:47:55.583Z,19.70
2022-09-21T15:50:31.518Z,19.30
2022-09-21T15:53:10.830Z,20.23
2022-09-21T15:55:54.713Z,17.77
2022-09-21T15:58:36.988Z,16.53
2022-09-21T16:01:17.746Z,17.47
2022-09-21T16:03:56.951Z,18.17
2022-09-21T16:06:33.011Z,18.27
2022-09-21T16:09:40.512Z,19.00
2022-09-21T16:12:43.034Z,16.03
2022-09-21T16:15:30.456Z,14.97
2022-09-21T16:18:06.454Z,14.80
2022-09-21T16:20:50.136Z,14.60
2022-09-21T16:23:25.470Z,13.47
2022-09-21T16:26:03.047Z,11.23
2022-09-21T16:29:01.630Z,11.20
2022-09-21T16:31:37.423Z,13.40
2022-09-21T16:34:30.387Z,12.83
2022-09-21T16:37:04.856Z,13.63
2022-09-21T16:39:41.103Z,12.77
2022-09-21T16:42:14.372Z,13.13
2022-09-21T16:44:50.674Z,13.13
2022-09-21T16:47:26.810Z,13.77
2022-09-21T16:50:03.125Z,12.90
2022-09-21T16:52:37.653Z,13.80
2022-09-21T16:55:13.642Z,13.87
2022-09-21T16:57:50.573Z,14.50
2022-09-21T17:00:26.387Z,13.40
2022-09-21T17:03:00.356Z,14.57
2022-09-21T17:05:34.957Z,14.87
2022-09-21T17:08:10.429Z,15.67
2022-09-21T17:10:47.324Z,14.93
2022-09-21T17:13:23.868Z,13.50
2022-09-21T17:16:01.800Z,15.27
2022-09-21T17:18:37.422Z,14.83
2022-09-21T17:21:34.560Z,14.57
2022-09-21T17:24:09.881Z,14.57
2022-09-21T17:26:44.705Z,14.73
2022-09-21T17:29:28.957Z,15.10
2022-09-21T17:32:15.970Z,17.13
2022-09-21T17:34:54.523Z,16.67
2022-09-21T17:37:30.693Z,17.40
2022-09-21T17:40:10.505Z,16.90
2022-09-21T17:42:49.862Z,17.47
2022-09-21T17:45:33.392Z,18.63
2022-09-21T17:48:22.023Z,19.27
2022-09-21T17:51:02.398Z,19.43
2022-09-21T17:53:38.905Z,20.60
2022-09-21T17:56:37.839Z,19.80
2022-09-21T17:59:20.521Z,21.33
2022-09-21T18:01:56.766Z,22.07
2022-09-21T18:04:37.174Z,22.03
2022-09-21T18:07:13.379Z,22.50
2022-09-21T18:09:49.547Z,22.53
2022-09-21T18:12:58.688Z,22.87
2022-09-21T18:15:39.790Z,23.60
2022-09-21T18:18:23.035Z,23.53
2022-09-21T18:21:07.058Z,23.90
2022-09-21T18:23:50.695Z,23.43
2022-09-21T18:26:25.681Z,25.20
2022-09-21T18:29:17.191Z,26.70
2022-09-21T18:32:09.661Z,27.33
2022-09-21T18:35:12.168Z,27.83
2022-09-21T18:38:13.597Z,29.27
2022-09-21T18:41:09.619Z,40.60
2022-09-21T18:44:04.472Z,39.90
2022-09-21T18:46:55.063Z,54.03
2022-09-21T18:49:54.265Z,52.53
2022-09-21T18:52:41.569Z,55.50
2022-09-21T18:55:30.168Z,56.30
2022-09-21T18:58:06.836Z,55.87
2022-09-21T19:00:42.298Z,62.43
2022-09-21T19:03:29.596Z,61.47
2022-09-21T19:06:37.467Z,61.53
2022-09-21T19:09:28.150Z,66.53
2022-09-21T19:12:14.339Z,63.43
2022-09-21T19:15:10.161Z,65.37
2022-09-21T19:18:05.631Z,64.43
2022-09-21T19:21:03.576Z,66.57
2022-09-21T19:23:52.541Z,64.07
2022-09-21T19:26:37.661Z,66.27
2022-09-21T19:29:46.658Z,62.37
2022-09-21T19:32:38.537Z,64.83
2022-09-21T19:35:31.574Z,61.97
2022-09-21T19:38:10.004Z,61.83
2022-09-21T19:40:44.773Z,59.50
2022-09-21T19:43:32.739Z,60.83
2022-09-21T19:46:22.103Z,61.20
2022-09-21T19:49:12.177Z,60.33
2022-09-21T19:51:58.059Z,59.50
2022-09-21T19:54:49.644Z,59.83
2022-09-21T19:57:40.210Z,54.93
2022-09-21T20:00:18.296Z,63.60
2022-09-21T20:03:07.553Z,63.90
2022-09-21T20:05:55.529Z,64.33
2022-09-21T20:08:36.300Z,63.27
2022-09-21T20:11:23.219Z,66.37
2022-09-21T20:14:17.893Z,63.67
2022-09-21T20:17:00.335Z,62.87
2022-09-21T20:19:48.709Z,59.13
2022-09-21T20:22:47.228Z,60.93
2022-09-21T20:25:31.360Z,61.80
2022-09-21T20:28:10.045Z,61.90
2022-09-21T20:30:49.155Z,63.10
2022-09-21T20:33:41.189Z,59.93
2022-09-21T20:39:13.813Z,59.00
2022-09-21T20:42:03.147Z,57.83
2022-09-21T20:44:47.621Z,58.43
2022-09-21T20:47:32.209Z,59.90
2022-09-21T20:50:11.196Z,58.27
2022-09-21T20:52:51.751Z,60.27
2022-09-21T20:55:31.355Z,59.20
2022-09-21T20:58:07.827Z,58.73
2022-09-21T21:00:42.589Z,57.43
2022-09-21T21:03:16.953Z,56.87
2022-09-21T21:05:59.239Z,55.93
2022-09-21T21:08:34.936Z,55.60
2022-09-21T21:11:13.175Z,56.90
2022-09-21T21:13:50.117Z,57.13
2022-09-21T21:16:25.152Z,59.87
2022-09-21T21:19:00.984Z,59.03
2022-09-21T21:21:35.887Z,60.13
2022-09-21T21:24:25.790Z,59.90
2022-09-21T21:27:03.453Z,58.13
2022-09-21T21:29:39.329Z,59.97
2022-09-21T21:32:14.946Z,60.07
2022-09-21T21:34:54.386Z,60.23
2022-09-21T21:37:30.800Z,60.73
2022-09-21T21:40:04.827Z,58.50
2022-09-21T21:42:41.030Z,64.83
2022-09-21T21:45:18.351Z,62.77
2022-09-21T21:47:52.039Z,64.80
2022-09-21T21:50:25.980Z,62.30
2022-09-21T21:53:02.658Z,62.87
2022-09-21T21:55:38.535Z,59.23
2022-09-21T21:58:15.490Z,63.33
2022-09-21T22:00:53.512Z,63.57
2022-09-21T22:03:27.540Z,62.37
2022-09-21T22:06:01.506Z,61.43
2022-09-21T22:08:36.198Z,57.23
2022-09-21T22:11:12.548Z,57.40
2022-09-21T22:13:50.869Z,59.80
2022-09-21T22:16:29.283Z,58.00
2022-09-21T22:19:08.400Z,58.53
2022-09-21T22:21:50.375Z,58.57
2022-09-21T22:24:28.417Z,58.50
2022-09-21T22:27:02.225Z,55.97
2022-09-21T22:29:43.402Z,55.53
2022-09-21T22:32:16.942Z,56.43
2022-09-21T22:34:53.607Z,55.87
2022-09-21T22:37:26.805Z,56.07
2022-09-21T22:40:01.172Z,55.07
2022-09-21T22:42:37.939Z,56.37
2022-09-21T22:45:17.672Z,58.50
2022-09-21T22:47:52.561Z,58.80
2022-09-21T22:50:28.218Z,56.10
2022-09-21T22:53:02.600Z,57.80
2022-09-21T22:55:36.923Z,55.37
2022-09-21T22:58:13.733Z,56.60
2022-09-21T23:00:55.009Z,58.53
2022-09-21T23:03:31.995Z,58.57
2022-09-21T23:06:08.212Z,57.20
2022-09-21T23:08:45.946Z,58.80
2022-09-21T23:11:28.144Z,57.90
2022-09-21T23:14:02.406Z,56.93
2022-09-21T23:16:38.676Z,56.87
2022-09-21T23:19:17.082Z,56.77
2022-09-21T23:21:54.277Z,56.77
2022-09-21T23:24:30.420Z,57.60
2022-09-21T23:27:04.942Z,58.87
2022-09-21T23:29:38.617Z,56.37
2022-09-21T23:32:30.439Z,57.17
2022-09-21T23:35:28.560Z,57.40
2022-09-21T23:51:36.975Z,42.07
2022-09-21T23:54:30.142Z,41.83
